sensor_id;sensor_type;location;lat;lon;timestamp;pressure;altitude;pressure_sealevel;temperature;humidity
32083;BME280;18597;48.328;7.932;2022-07-29T00:00:56;99179.25;;;20.87;nan
32083;BME280;18597;48.328;7.932;2022-07-29T00:03:21;99179.44;;;20.65;nan
32083;BME280;18597;48.328;7.932;2022-07-29T00:05:47;99175.88;;;20.58;nan
32083;BME280;18597;48.328;7.932;2022-07-29T00:08:13;99172.72;;;20.48;nan
32083;BME280;18597;48.328;7.932;2022-07-29T00:10:41;99171.88;;;20.54;nan
32083;BME280;18597;48.328;7.932;2022-07-29T00:13:07;99163.28;;;20.37;nan
32083;BME280;18597;48.328;7.932;2022-07-29T00:15:33;99177.03;;;20.29;nan
32083;BME280;18597;48.328;7.932;2022-07-29T00:17:59;99172.03;;;20.26;nan
32083;BME280;18597;48.328;7.932;2022-07-29T00:20:25;99173.03;;;20.12;nan
32083;BME280;18597;48.328;7.932;2022-07-29T00:22:51;99175.69;;;19.99;nan
32083;BME280;18597;48.328;7.932;2022-07-29T00:25:17;99181.25;;;19.84;nan
32083;BME280;18597;48.328;7.932;2022-07-29T00:27:43;99182.72;;;19.86;nan
32083;BME280;18597;48.328;7.932;2022-07-29T00:30:09;99180.13;;;19.65;nan
32083;BME280;18597;48.328;7.932;2022-07-29T00:32:35;99177.38;;;19.58;nan
32083;BME280;18597;48.328;7.932;2022-07-29T00:35:01;99173.00;;;19.57;nan
32083;BME280;18597;48.328;7.932;2022-07-29T00:37:46;99173.94;;;19.43;nan
32083;BME280;18597;48.328;7.932;2022-07-29T00:40:12;99173.94;;;19.43;nan
32083;BME280;18597;48.328;7.932;2022-07-29T00:42:48;99177.03;;;19.40;nan
32083;BME280;18597;48.328;7.932;2022-07-29T00:45:15;99171.81;;;19.38;nan
32083;BME280;18597;48.328;7.932;2022-07-29T00:47:41;99177.97;;;19.26;nan
32083;BME280;18597;48.328;7.932;2022-07-29T00:50:11;99173.53;;;19.18;nan
32083;BME280;18597;48.328;7.932;2022-07-29T00:52:39;99156.47;;;19.18;nan
32083;BME280;18597;48.328;7.932;2022-07-29T00:55:10;99159.13;;;19.11;nan
32083;BME280;18597;48.328;7.932;2022-07-29T00:57:37;99166.59;;;19.09;nan
32083;BME280;18597;48.328;7.932;2022-07-29T01:00:07;99160.91;;;18.97;nan
32083;BME280;18597;48.328;7.932;2022-07-29T01:02:33;99168.91;;;18.84;nan
32083;BME280;18597;48.328;7.932;2022-07-29T01:05:02;99161.56;;;18.78;nan
32083;BME280;18597;48.328;7.932;2022-07-29T01:07:29;99170.09;;;18.75;nan
32083;BME280;18597;48.328;7.932;2022-07-29T01:09:56;99166.16;;;18.77;nan
32083;BME280;18597;48.328;7.932;2022-07-29T01:12:26;99170.09;;;18.75;nan
32083;BME280;18597;48.328;7.932;2022-07-29T01:14:54;99166.72;;;18.73;nan
32083;BME280;18597;48.328;7.932;2022-07-29T01:18:02;99157.56;;;18.74;nan
32083;BME280;18597;48.328;7.932;2022-07-29T01:30:14;99157.50;;;18.46;nan
32083;BME280;18597;48.328;7.932;2022-07-29T01:32:40;99156.28;;;18.48;nan
32083;BME280;18597;48.328;7.932;2022-07-29T01:35:21;99161.41;;;18.43;nan
32083;BME280;18597;48.328;7.932;2022-07-29T01:38:09;99154.94;;;18.38;nan
32083;BME280;18597;48.328;7.932;2022-07-29T01:40:47;99159.56;;;18.44;nan
32083;BME280;18597;48.328;7.932;2022-07-29T01:43:42;99158.28;;;18.40;nan
32083;BME280;18597;48.328;7.932;2022-07-29T01:46:14;99156.41;;;18.40;nan
32083;BME280;18597;48.328;7.932;2022-07-29T01:48:50;99159.25;;;18.32;nan
32083;BME280;18597;48.328;7.932;2022-07-29T01:51:23;99159.88;;;18.34;nan
32083;BME280;18597;48.328;7.932;2022-07-29T01:56:51;99172.13;;;18.30;nan
32083;BME280;18597;48.328;7.932;2022-07-29T01:59:17;99168.31;;;18.24;nan
32083;BME280;18597;48.328;7.932;2022-07-29T02:01:46;99166.88;;;18.28;nan
32083;BME280;18597;48.328;7.932;2022-07-29T02:04:12;99167.69;;;18.22;nan
32083;BME280;18597;48.328;7.932;2022-07-29T02:06:42;99181.59;;;18.05;nan
32083;BME280;18597;48.328;7.932;2022-07-29T02:09:10;99182.28;;;18.07;nan
32083;BME280;18597;48.328;7.932;2022-07-29T02:11:38;99172.50;;;17.91;nan
32083;BME280;18597;48.328;7.932;2022-07-29T02:14:07;99172.13;;;17.94;nan
32083;BME280;18597;48.328;7.932;2022-07-29T02:16:35;99181.91;;;17.95;nan
32083;BME280;18597;48.328;7.932;2022-07-29T02:19:03;99180.25;;;17.79;nan
32083;BME280;18597;48.328;7.932;2022-07-29T02:21:30;99181.47;;;17.77;nan
32083;BME280;18597;48.328;7.932;2022-07-29T02:24:00;99186.06;;;17.76;nan
32083;BME280;18597;48.328;7.932;2022-07-29T02:26:28;99184.00;;;17.78;nan
32083;BME280;18597;48.328;7.932;2022-07-29T02:28:57;99184.53;;;17.59;nan
32083;BME280;18597;48.328;7.932;2022-07-29T02:31:31;99184.25;;;17.54;nan
32083;BME280;18597;48.328;7.932;2022-07-29T02:33:59;99185.09;;;17.39;nan
32083;BME280;18597;48.328;7.932;2022-07-29T02:36:27;99186.47;;;17.50;nan
32083;BME280;18597;48.328;7.932;2022-07-29T02:38:55;99182.00;;;17.42;nan
32083;BME280;18597;48.328;7.932;2022-07-29T02:41:30;99186.56;;;17.27;nan
32083;BME280;18597;48.328;7.932;2022-07-29T02:44:05;99193.28;;;17.16;nan
32083;BME280;18597;48.328;7.932;2022-07-29T02:46:34;99184.13;;;17.03;nan
32083;BME280;18597;48.328;7.932;2022-07-29T02:49:13;99189.97;;;17.06;nan
32083;BME280;18597;48.328;7.932;2022-07-29T02:51:46;99189.81;;;17.23;nan
32083;BME280;18597;48.328;7.932;2022-07-29T02:54:25;99186.84;;;17.17;nan
32083;BME280;18597;48.328;7.932;2022-07-29T02:56:53;99182.75;;;17.22;nan
32083;BME280;18597;48.328;7.932;2022-07-29T02:59:26;99187.13;;;17.08;nan
32083;BME280;18597;48.328;7.932;2022-07-29T03:01:54;99188.25;;;17.28;nan
32083;BME280;18597;48.328;7.932;2022-07-29T03:04:23;99182.63;;;17.15;nan
32083;BME280;18597;48.328;7.932;2022-07-29T03:06:50;99189.53;;;17.17;nan
32083;BME280;18597;48.328;7.932;2022-07-29T03:09:17;99188.41;;;17.12;nan
32083;BME280;18597;48.328;7.932;2022-07-29T03:11:44;99188.78;;;17.09;nan
32083;BME280;18597;48.328;7.932;2022-07-29T03:14:11;99202.84;;;17.19;nan
32083;BME280;18597;48.328;7.932;2022-07-29T03:16:37;99205.56;;;17.19;nan
32083;BME280;18597;48.328;7.932;2022-07-29T03:19:04;99210.19;;;17.10;nan
32083;BME280;18597;48.328;7.932;2022-07-29T03:21:31;99209.44;;;17.02;nan
32083;BME280;18597;48.328;7.932;2022-07-29T03:23:56;99202.53;;;16.99;nan
32083;BME280;18597;48.328;7.932;2022-07-29T03:26:22;99209.09;;;16.82;nan
32083;BME280;18597;48.328;7.932;2022-07-29T03:28:48;99204.31;;;16.69;nan
32083;BME280;18597;48.328;7.932;2022-07-29T03:31:14;99203.44;;;16.69;nan
32083;BME280;18597;48.328;7.932;2022-07-29T03:33:40;99203.25;;;16.78;nan
32083;BME280;18597;48.328;7.932;2022-07-29T03:36:06;99200.94;;;16.90;nan
32083;BME280;18597;48.328;7.932;2022-07-29T03:38:34;99198.13;;;16.83;nan
32083;BME280;18597;48.328;7.932;2022-07-29T03:41:07;99198.75;;;16.71;nan
32083;BME280;18597;48.328;7.932;2022-07-29T03:43:37;99208.41;;;16.57;nan
32083;BME280;18597;48.328;7.932;2022-07-29T03:46:07;99210.09;;;16.58;nan
32083;BME280;18597;48.328;7.932;2022-07-29T03:48:37;99209.25;;;16.57;nan
32083;BME280;18597;48.328;7.932;2022-07-29T03:51:06;99211.84;;;16.51;nan
32083;BME280;18597;48.328;7.932;2022-07-29T03:53:32;99210.50;;;16.47;nan
32083;BME280;18597;48.328;7.932;2022-07-29T03:56:02;99210.38;;;16.71;nan
32083;BME280;18597;48.328;7.932;2022-07-29T03:58:30;99220.03;;;16.57;nan
32083;BME280;18597;48.328;7.932;2022-07-29T04:00:57;99216.31;;;16.58;nan
32083;BME280;18597;48.328;7.932;2022-07-29T04:03:24;99218.50;;;16.63;nan
32083;BME280;18597;48.328;7.932;2022-07-29T04:06:06;99217.94;;;16.68;nan
32083;BME280;18597;48.328;7.932;2022-07-29T04:08:34;99217.72;;;16.77;nan
32083;BME280;18597;48.328;7.932;2022-07-29T04:11:01;99212.88;;;16.73;nan
32083;BME280;18597;48.328;7.932;2022-07-29T04:13:27;99212.03;;;16.72;nan
32083;BME280;18597;48.328;7.932;2022-07-29T04:15:53;99215.31;;;16.82;nan
32083;BME280;18597;48.328;7.932;2022-07-29T04:18:19;99211.25;;;16.86;nan
32083;BME280;18597;48.328;7.932;2022-07-29T04:20:45;99229.25;;;16.94;nan
32083;BME280;18597;48.328;7.932;2022-07-29T04:23:10;99218.59;;;17.15;nan
32083;BME280;18597;48.328;7.932;2022-07-29T04:25:39;99233.78;;;17.31;nan
32083;BME280;18597;48.328;7.932;2022-07-29T04:28:06;99225.13;;;17.36;nan
32083;BME280;18597;48.328;7.932;2022-07-29T04:30:33;99221.13;;;17.46;nan
32083;BME280;18597;48.328;7.932;2022-07-29T04:33:00;99229.25;;;17.46;nan
32083;BME280;18597;48.328;7.932;2022-07-29T04:35:29;99229.78;;;17.57;nan
32083;BME280;18597;48.328;7.932;2022-07-29T04:37:54;99232.69;;;17.55;nan
32083;BME280;18597;48.328;7.932;2022-07-29T04:40:21;99234.56;;;17.55;nan
32083;BME280;18597;48.328;7.932;2022-07-29T04:42:47;99238.94;;;17.56;nan
32083;BME280;18597;48.328;7.932;2022-07-29T04:45:13;99235.75;;;17.67;nan
32083;BME280;18597;48.328;7.932;2022-07-29T04:47:39;99245.19;;;17.71;nan
32083;BME280;18597;48.328;7.932;2022-07-29T04:50:06;99245.31;;;17.78;nan
32083;BME280;18597;48.328;7.932;2022-07-29T04:52:32;99249.75;;;17.85;nan
32083;BME280;18597;48.328;7.932;2022-07-29T04:55:00;99258.63;;;17.79;nan
32083;BME280;18597;48.328;7.932;2022-07-29T04:57:25;99251.34;;;17.80;nan
32083;BME280;18597;48.328;7.932;2022-07-29T04:59:51;99242.59;;;17.78;nan
32083;BME280;18597;48.328;7.932;2022-07-29T05:02:17;99246.47;;;17.90;nan
32083;BME280;18597;48.328;7.932;2022-07-29T05:04:43;99249.56;;;17.87;nan
32083;BME280;18597;48.328;7.932;2022-07-29T05:07:09;99254.75;;;18.18;nan
32083;BME280;18597;48.328;7.932;2022-07-29T05:09:35;99257.53;;;18.24;nan
32083;BME280;18597;48.328;7.932;2022-07-29T05:12:00;99262.28;;;18.37;nan
32083;BME280;18597;48.328;7.932;2022-07-29T05:14:26;99260.03;;;18.98;nan
32083;BME280;18597;48.328;7.932;2022-07-29T05:16:52;99263.78;;;21.89;nan
32083;BME280;18597;48.328;7.932;2022-07-29T05:19:22;99266.97;;;25.04;nan
32083;BME280;18597;48.328;7.932;2022-07-29T05:21:48;99264.44;;;26.55;nan
32083;BME280;18597;48.328;7.932;2022-07-29T05:24:14;99258.16;;;28.66;nan
32083;BME280;18597;48.328;7.932;2022-07-29T05:26:40;99257.31;;;30.42;nan
32083;BME280;18597;48.328;7.932;2022-07-29T05:29:06;99266.88;;;31.58;nan
32083;BME280;18597;48.328;7.932;2022-07-29T05:31:31;99264.00;;;32.83;nan
32083;BME280;18597;48.328;7.932;2022-07-29T05:33:59;99264.31;;;32.82;nan
32083;BME280;18597;48.328;7.932;2022-07-29T05:36:25;99263.22;;;30.71;nan
32083;BME280;18597;48.328;7.932;2022-07-29T05:38:51;99264.41;;;29.11;nan
32083;BME280;18597;48.328;7.932;2022-07-29T05:41:18;99259.94;;;27.40;nan
32083;BME280;18597;48.328;7.932;2022-07-29T05:43:44;99269.56;;;25.64;nan
32083;BME280;18597;48.328;7.932;2022-07-29T05:46:10;99266.81;;;25.41;nan
32083;BME280;18597;48.328;7.932;2022-07-29T05:48:36;99255.13;;;25.22;nan
32083;BME280;18597;48.328;7.932;2022-07-29T05:51:02;99259.03;;;27.17;nan
32083;BME280;18597;48.328;7.932;2022-07-29T05:53:28;99267.53;;;28.70;nan
32083;BME280;18597;48.328;7.932;2022-07-29T05:55:54;99266.41;;;29.52;nan
32083;BME280;18597;48.328;7.932;2022-07-29T05:58:20;99273.34;;;28.74;nan
32083;BME280;18597;48.328;7.932;2022-07-29T06:00:46;99272.91;;;30.21;nan
32083;BME280;18597;48.328;7.932;2022-07-29T06:03:12;99275.19;;;31.63;nan
32083;BME280;18597;48.328;7.932;2022-07-29T06:05:38;99270.47;;;31.68;nan
32083;BME280;18597;48.328;7.932;2022-07-29T06:08:04;99271.81;;;30.22;nan
32083;BME280;18597;48.328;7.932;2022-07-29T06:10:34;99281.13;;;29.36;nan
32083;BME280;18597;48.328;7.932;2022-07-29T06:13:01;99278.41;;;29.73;nan
32083;BME280;18597;48.328;7.932;2022-07-29T06:15:26;99271.47;;;30.08;nan
32083;BME280;18597;48.328;7.932;2022-07-29T06:17:52;99274.53;;;29.37;nan
32083;BME280;18597;48.328;7.932;2022-07-29T06:20:19;99269.06;;;29.74;nan
32083;BME280;18597;48.328;7.932;2022-07-29T06:22:44;99273.13;;;32.24;nan
32083;BME280;18597;48.328;7.932;2022-07-29T06:25:10;99279.81;;;33.90;nan
32083;BME280;18597;48.328;7.932;2022-07-29T06:27:37;99278.81;;;35.15;nan
32083;BME280;18597;48.328;7.932;2022-07-29T06:30:04;99268.66;;;38.37;nan
32083;BME280;18597;48.328;7.932;2022-07-29T06:32:33;99265.47;;;40.50;nan
32083;BME280;18597;48.328;7.932;2022-07-29T06:34:58;99264.16;;;39.54;nan
32083;BME280;18597;48.328;7.932;2022-07-29T06:37:24;99258.97;;;41.09;nan
32083;BME280;18597;48.328;7.932;2022-07-29T06:39:50;99258.09;;;40.45;nan
32083;BME280;18597;48.328;7.932;2022-07-29T06:42:36;99267.09;;;38.62;nan
32083;BME280;18597;48.328;7.932;2022-07-29T06:45:02;99259.16;;;36.73;nan
32083;BME280;18597;48.328;7.932;2022-07-29T06:47:28;99259.00;;;35.02;nan
32083;BME280;18597;48.328;7.932;2022-07-29T06:49:54;99259.50;;;33.03;nan
32083;BME280;18597;48.328;7.932;2022-07-29T06:52:20;99266.34;;;31.40;nan
32083;BME280;18597;48.328;7.932;2022-07-29T06:54:46;99261.88;;;30.88;nan
32083;BME280;18597;48.328;7.932;2022-07-29T06:57:14;99267.09;;;30.70;nan
32083;BME280;18597;48.328;7.932;2022-07-29T06:59:39;99267.44;;;30.26;nan
32083;BME280;18597;48.328;7.932;2022-07-29T07:02:05;99263.56;;;30.17;nan
32083;BME280;18597;48.328;7.932;2022-07-29T07:04:31;99270.19;;;31.09;nan
32083;BME280;18597;48.328;7.932;2022-07-29T07:06:57;99275.19;;;33.12;nan
32083;BME280;18597;48.328;7.932;2022-07-29T07:09:24;99264.75;;;35.06;nan
32083;BME280;18597;48.328;7.932;2022-07-29T07:11:50;99278.56;;;35.30;nan
32083;BME280;18597;48.328;7.932;2022-07-29T07:14:16;99278.47;;;37.64;nan
32083;BME280;18597;48.328;7.932;2022-07-29T07:16:42;99281.78;;;41.40;nan
32083;BME280;18597;48.328;7.932;2022-07-29T07:19:08;99277.56;;;44.29;nan
32083;BME280;18597;48.328;7.932;2022-07-29T07:21:34;99276.38;;;46.24;nan
32083;BME280;18597;48.328;7.932;2022-07-29T07:24:00;99270.13;;;48.32;nan
32083;BME280;18597;48.328;7.932;2022-07-29T07:26:26;99268.41;;;50.52;nan
32083;BME280;18597;48.328;7.932;2022-07-29T07:28:53;99273.25;;;51.71;nan
32083;BME280;18597;48.328;7.932;2022-07-29T07:31:19;99277.84;;;51.51;nan
32083;BME280;18597;48.328;7.932;2022-07-29T07:33:45;99271.16;;;49.45;nan
32083;BME280;18597;48.328;7.932;2022-07-29T07:36:11;99273.69;;;48.26;nan
32083;BME280;18597;48.328;7.932;2022-07-29T07:38:37;99265.25;;;47.51;nan
32083;BME280;18597;48.328;7.932;2022-07-29T07:41:03;99276.72;;;47.28;nan
32083;BME280;18597;48.328;7.932;2022-07-29T07:43:29;99277.09;;;49.11;nan
32083;BME280;18597;48.328;7.932;2022-07-29T07:45:55;99282.97;;;50.75;nan
32083;BME280;18597;48.328;7.932;2022-07-29T07:48:21;99282.03;;;51.95;nan
32083;BME280;18597;48.328;7.932;2022-07-29T07:50:46;99274.84;;;51.79;nan
32083;BME280;18597;48.328;7.932;2022-07-29T07:53:14;99268.03;;;50.11;nan
32083;BME280;18597;48.328;7.932;2022-07-29T07:55:42;99270.34;;;47.35;nan
32083;BME280;18597;48.328;7.932;2022-07-29T07:58:08;99261.63;;;44.53;nan
32083;BME280;18597;48.328;7.932;2022-07-29T08:00:35;99264.06;;;43.32;nan
32083;BME280;18597;48.328;7.932;2022-07-29T08:03:00;99265.66;;;42.92;nan
32083;BME280;18597;48.328;7.932;2022-07-29T08:05:27;99271.53;;;43.00;nan
32083;BME280;18597;48.328;7.932;2022-07-29T08:07:53;99271.63;;;44.03;nan
32083;BME280;18597;48.328;7.932;2022-07-29T08:10:20;99270.03;;;45.04;nan
32083;BME280;18597;48.328;7.932;2022-07-29T08:13:07;99272.81;;;44.02;nan
32083;BME280;18597;48.328;7.932;2022-07-29T08:15:34;99280.72;;;42.48;nan
32083;BME280;18597;48.328;7.932;2022-07-29T08:18:01;99269.75;;;40.77;nan
32083;BME280;18597;48.328;7.932;2022-07-29T08:20:27;99272.88;;;39.44;nan
32083;BME280;18597;48.328;7.932;2022-07-29T08:22:53;99279.75;;;38.20;nan
32083;BME280;18597;48.328;7.932;2022-07-29T08:25:19;99286.19;;;36.86;nan
32083;BME280;18597;48.328;7.932;2022-07-29T08:27:47;99290.53;;;36.23;nan
32083;BME280;18597;48.328;7.932;2022-07-29T08:30:13;99293.75;;;35.51;nan
32083;BME280;18597;48.328;7.932;2022-07-29T08:32:39;99292.22;;;35.26;nan
32083;BME280;18597;48.328;7.932;2022-07-29T08:35:06;99295.09;;;35.02;nan
32083;BME280;18597;48.328;7.932;2022-07-29T08:37:32;99295.91;;;34.41;nan
32083;BME280;18597;48.328;7.932;2022-07-29T08:39:57;99302.59;;;34.35;nan
32083;BME280;18597;48.328;7.932;2022-07-29T08:42:23;99297.19;;;34.25;nan
32083;BME280;18597;48.328;7.932;2022-07-29T08:44:49;99300.31;;;34.42;nan
32083;BME280;18597;48.328;7.932;2022-07-29T08:47:17;99296.16;;;34.64;nan
32083;BME280;18597;48.328;7.932;2022-07-29T08:49:43;99297.53;;;34.42;nan
32083;BME280;18597;48.328;7.932;2022-07-29T08:52:11;99297.69;;;34.27;nan
32083;BME280;18597;48.328;7.932;2022-07-29T08:54:39;99302.13;;;34.28;nan
32083;BME280;18597;48.328;7.932;2022-07-29T08:57:05;99292.94;;;34.09;nan
32083;BME280;18597;48.328;7.932;2022-07-29T08:59:33;99293.63;;;33.96;nan
32083;BME280;18597;48.328;7.932;2022-07-29T09:02:00;99297.09;;;34.06;nan
32083;BME280;18597;48.328;7.932;2022-07-29T09:04:30;99303.94;;;34.14;nan
32083;BME280;18597;48.328;7.932;2022-07-29T09:07:00;99292.75;;;34.24;nan
32083;BME280;18597;48.328;7.932;2022-07-29T09:09:29;99292.56;;;34.39;nan
32083;BME280;18597;48.328;7.932;2022-07-29T09:11:55;99290.91;;;34.38;nan
32083;BME280;18597;48.328;7.932;2022-07-29T09:14:21;99297.56;;;34.37;nan
32083;BME280;18597;48.328;7.932;2022-07-29T09:16:51;99302.13;;;34.28;nan
32083;BME280;18597;48.328;7.932;2022-07-29T09:19:31;99299.88;;;34.30;nan
32083;BME280;18597;48.328;7.932;2022-07-29T09:21:59;99294.16;;;34.21;nan
32083;BME280;18597;48.328;7.932;2022-07-29T09:24:44;99289.50;;;33.88;nan
32083;BME280;18597;48.328;7.932;2022-07-29T09:27:23;99300.44;;;33.45;nan
32083;BME280;18597;48.328;7.932;2022-07-29T09:30:09;99297.03;;;33.14;nan
32083;BME280;18597;48.328;7.932;2022-07-29T09:32:58;99296.03;;;32.95;nan
32083;BME280;18597;48.328;7.932;2022-07-29T09:35:28;99287.19;;;32.98;nan
32083;BME280;18597;48.328;7.932;2022-07-29T09:37:54;99284.72;;;33.30;nan
32083;BME280;18597;48.328;7.932;2022-07-29T09:40:25;99288.88;;;33.67;nan
32083;BME280;18597;48.328;7.932;2022-07-29T09:42:52;99282.31;;;34.16;nan
32083;BME280;18597;48.328;7.932;2022-07-29T09:45:33;99283.97;;;34.41;nan
32083;BME280;18597;48.328;7.932;2022-07-29T09:48:16;99286.34;;;34.71;nan
32083;BME280;18597;48.328;7.932;2022-07-29T09:50:45;99280.25;;;34.93;nan
32083;BME280;18597;48.328;7.932;2022-07-29T09:53:15;99274.53;;;35.03;nan
32083;BME280;18597;48.328;7.932;2022-07-29T09:55:54;99278.47;;;35.35;nan
32083;BME280;18597;48.328;7.932;2022-07-29T09:58:21;99283.72;;;35.55;nan
32083;BME280;18597;48.328;7.932;2022-07-29T10:00:50;99287.59;;;35.87;nan
32083;BME280;18597;48.328;7.932;2022-07-29T10:03:16;99286.50;;;36.16;nan
32083;BME280;18597;48.328;7.932;2022-07-29T10:05:44;99295.69;;;36.57;nan
32083;BME280;18597;48.328;7.932;2022-07-29T10:08:11;99294.44;;;36.63;nan
32083;BME280;18597;48.328;7.932;2022-07-29T10:10:42;99285.88;;;36.74;nan
32083;BME280;18597;48.328;7.932;2022-07-29T10:13:12;99284.56;;;36.57;nan
32083;BME280;18597;48.328;7.932;2022-07-29T10:15:41;99277.66;;;36.55;nan
32083;BME280;18597;48.328;7.932;2022-07-29T10:18:10;99281.59;;;36.12;nan
32083;BME280;18597;48.328;7.932;2022-07-29T10:20:37;99279.13;;;34.94;nan
32083;BME280;18597;48.328;7.932;2022-07-29T10:23:04;99275.53;;;34.03;nan
32083;BME280;18597;48.328;7.932;2022-07-29T10:25:30;99273.56;;;33.46;nan
32083;BME280;18597;48.328;7.932;2022-07-29T10:27:57;99272.97;;;33.09;nan
32083;BME280;18597;48.328;7.932;2022-07-29T10:30:25;99272.13;;;31.90;nan
32083;BME280;18597;48.328;7.932;2022-07-29T10:43:18;99264.59;;;34.60;nan
32083;BME280;18597;48.328;7.932;2022-07-29T10:45:49;99266.88;;;34.95;nan
32083;BME280;18597;48.328;7.932;2022-07-29T10:48:20;99273.28;;;35.28;nan
32083;BME280;18597;48.328;7.932;2022-07-29T10:50:59;99270.66;;;35.37;nan
32083;BME280;18597;48.328;7.932;2022-07-29T10:53:50;99268.16;;;35.36;nan
32083;BME280;18597;48.328;7.932;2022-07-29T10:56:28;99273.13;;;35.39;nan
32083;BME280;18597;48.328;7.932;2022-07-29T10:59:28;99274.81;;;35.86;nan
32083;BME280;18597;48.328;7.932;2022-07-29T11:01:56;99273.56;;;36.52;nan
32083;BME280;18597;48.328;7.932;2022-07-29T11:07:14;99265.63;;;37.32;nan
32083;BME280;18597;48.328;7.932;2022-07-29T11:09:41;99279.72;;;37.58;nan
32083;BME280;18597;48.328;7.932;2022-07-29T11:12:46;99267.88;;;37.30;nan
32083;BME280;18597;48.328;7.932;2022-07-29T11:15:19;99271.84;;;37.15;nan
32083;BME280;18597;48.328;7.932;2022-07-29T11:20:48;99272.25;;;37.22;22.50
32083;BME280;18597;48.328;7.932;2022-07-29T11:23:33;99275.28;;;37.12;23.10
32083;BME280;18597;48.328;7.932;2022-07-29T11:26:19;99277.50;;;37.23;23.13
32083;BME280;18597;48.328;7.932;2022-07-29T11:31:39;99282.81;;;37.11;22.58
32083;BME280;18597;48.328;7.932;2022-07-29T11:34:29;99279.00;;;37.07;22.59
32083;BME280;18597;48.328;7.932;2022-07-29T11:37:15;99285.31;;;36.99;22.86
32083;BME280;18597;48.328;7.932;2022-07-29T11:45:07;99280.00;;;36.89;22.99
32083;BME280;18597;48.328;7.932;2022-07-29T11:47:38;99285.25;;;36.77;23.26
32083;BME280;18597;48.328;7.932;2022-07-29T11:50:09;99286.41;;;36.62;23.46
32083;BME280;18597;48.328;7.932;2022-07-29T11:52:39;99281.28;;;36.28;24.17
32083;BME280;18597;48.328;7.932;2022-07-29T11:55:11;99275.91;;;35.90;25.07
32083;BME280;18597;48.328;7.932;2022-07-29T12:00:40;99279.81;;;35.38;24.69
32083;BME280;18597;48.328;7.932;2022-07-29T12:03:10;99280.84;;;35.09;25.38
32083;BME280;18597;48.328;7.932;2022-07-29T12:05:42;99282.84;;;34.85;25.39
32083;BME280;18597;48.328;7.932;2022-07-29T12:08:17;99274.09;;;34.30;26.26
32083;BME280;18597;48.328;7.932;2022-07-29T12:10:46;99277.94;;;34.10;26.45
32083;BME280;18597;48.328;7.932;2022-07-29T12:13:14;99272.28;;;34.20;26.79
32083;BME280;18597;48.328;7.932;2022-07-29T12:15:41;99276.69;;;34.21;26.64
32083;BME280;18597;48.328;7.932;2022-07-29T12:18:25;99273.88;;;34.26;26.83
32083;BME280;18597;48.328;7.932;2022-07-29T12:21:00;99280.66;;;34.39;26.46
32083;BME280;18597;48.328;7.932;2022-07-29T12:23:31;99282.88;;;34.61;26.26
32083;BME280;18597;48.328;7.932;2022-07-29T12:25:58;99286.03;;;34.73;26.22
32083;BME280;18597;48.328;7.932;2022-07-29T12:28:24;99277.16;;;34.95;25.82
32083;BME280;18597;48.328;7.932;2022-07-29T12:30:51;99287.38;;;34.75;26.36
32083;BME280;18597;48.328;7.932;2022-07-29T12:33:24;99286.81;;;34.79;26.41
32083;BME280;18597;48.328;7.932;2022-07-29T12:35:58;99292.16;;;34.94;26.06
32083;BME280;18597;48.328;7.932;2022-07-29T12:38:25;99282.03;;;34.84;26.33
32083;BME280;18597;48.328;7.932;2022-07-29T12:40:52;99293.34;;;34.88;25.83
32083;BME280;18597;48.328;7.932;2022-07-29T12:43:22;99288.25;;;35.14;25.83
32083;BME280;18597;48.328;7.932;2022-07-29T12:45:51;99293.66;;;35.05;26.09
32083;BME280;18597;48.328;7.932;2022-07-29T12:51:04;99278.38;;;35.08;25.19
32083;BME280;18597;48.328;7.932;2022-07-29T12:53:32;99285.69;;;35.17;25.36
32083;BME280;18597;48.328;7.932;2022-07-29T12:55:58;99284.63;;;35.32;25.44
32083;BME280;18597;48.328;7.932;2022-07-29T12:58:33;99284.63;;;35.32;25.82
32083;BME280;18597;48.328;7.932;2022-07-29T13:01:16;99290.50;;;35.30;25.17
32083;BME280;18597;48.328;7.932;2022-07-29T13:03:53;99281.41;;;35.25;25.79
32083;BME280;18597;48.328;7.932;2022-07-29T13:06:42;99282.22;;;35.25;25.49
32083;BME280;18597;48.328;7.932;2022-07-29T13:09:15;99281.47;;;35.20;25.98
32083;BME280;18597;48.328;7.932;2022-07-29T13:11:48;99274.22;;;35.24;26.43
32083;BME280;18597;48.328;7.932;2022-07-29T13:14:33;99282.06;;;35.36;25.75
32083;BME280;18597;48.328;7.932;2022-07-29T13:22:22;99283.97;;;35.40;25.24
32083;BME280;18597;48.328;7.932;2022-07-29T13:24:53;99283.72;;;35.55;25.36
32083;BME280;18597;48.328;7.932;2022-07-29T13:27:25;99282.75;;;35.46;25.57
32083;BME280;18597;48.328;7.932;2022-07-29T13:29:52;99284.53;;;35.56;24.97
32083;BME280;18597;48.328;7.932;2022-07-29T13:32:19;99284.13;;;35.63;24.75
32083;BME280;18597;48.328;7.932;2022-07-29T13:34:45;99290.25;;;35.78;25.00
32083;BME280;18597;48.328;7.932;2022-07-29T13:37:11;99285.50;;;35.79;24.67
32083;BME280;18597;48.328;7.932;2022-07-29T13:39:37;99281.88;;;35.65;24.67
32083;BME280;18597;48.328;7.932;2022-07-29T13:42:04;99281.59;;;35.80;24.74
32083;BME280;18597;48.328;7.932;2022-07-29T13:44:30;99276.94;;;35.62;24.69
32083;BME280;18597;48.328;7.932;2022-07-29T13:46:56;99277.03;;;35.56;25.20
32083;BME280;18597;48.328;7.932;2022-07-29T13:49:25;99277.88;;;35.71;25.14
32083;BME280;18597;48.328;7.932;2022-07-29T13:51:50;99280.16;;;35.69;24.80
32083;BME280;18597;48.328;7.932;2022-07-29T13:54:16;99274.66;;;35.64;24.77
32083;BME280;18597;48.328;7.932;2022-07-29T13:56:42;99268.69;;;35.56;25.72
32083;BME280;18597;48.328;7.932;2022-07-29T13:59:08;99271.28;;;35.67;25.08
32083;BME280;18597;48.328;7.932;2022-07-29T14:01:35;99264.31;;;35.69;25.37
32083;BME280;18597;48.328;7.932;2022-07-29T14:04:01;99269.88;;;35.83;25.83
32083;BME280;18597;48.328;7.932;2022-07-29T14:06:27;99268.59;;;35.62;25.65
32083;BME280;18597;48.328;7.932;2022-07-29T14:08:53;99275.88;;;35.25;26.54
32083;BME280;18597;48.328;7.932;2022-07-29T14:11:18;99275.09;;;35.38;26.30
32083;BME280;18597;48.328;7.932;2022-07-29T14:13:45;99269.69;;;35.28;26.84
32083;BME280;18597;48.328;7.932;2022-07-29T14:16:11;99262.78;;;35.44;26.35